sensor_id;sensor_type;location;lat;lon;timestamp;P1;durP1;ratioP1;P2;durP2;ratioP2
3379;SDS011;1703;51.964;7.642;2023-04-01T00:00:25;4.53;;;1.63;;
3379;SDS011;1703;51.964;7.642;2023-04-01T00:02:52;6.40;;;1.57;;
3379;SDS011;1703;51.964;7.642;2023-04-01T00:05:18;4.17;;;1.43;;
3379;SDS011;1703;51.964;7.642;2023-04-01T00:07:45;3.37;;;1.30;;
3379;SDS011;1703;51.964;7.642;2023-04-01T00:10:12;3.53;;;2.00;;
3379;SDS011;1703;51.964;7.642;2023-04-01T00:12:40;2.67;;;1.20;;
3379;SDS011;1703;51.964;7.642;2023-04-01T00:15:08;1.63;;;1.30;;
3379;SDS011;1703;51.964;7.642;2023-04-01T00:17:37;7.13;;;2.37;;
3379;SDS011;1703;51.964;7.642;2023-04-01T00:20:05;5.37;;;1.70;;
3379;SDS011;1703;51.964;7.642;2023-04-01T00:22:34;2.63;;;1.00;;
3379;SDS011;1703;51.964;7.642;2023-04-01T00:25:01;3.13;;;1.87;;
3379;SDS011;1703;51.964;7.642;2023-04-01T00:27:29;11.67;;;1.53;;
3379;SDS011;1703;51.964;7.642;2023-04-01T00:29:56;2.50;;;1.40;;
3379;SDS011;1703;51.964;7.642;2023-04-01T00:32:23;8.07;;;1.70;;
3379;SDS011;1703;51.964;7.642;2023-04-01T00:34:51;2.60;;;2.03;;
3379;SDS011;1703;51.964;7.642;2023-04-01T00:37:19;4.90;;;1.80;;
3379;SDS011;1703;51.964;7.642;2023-04-01T00:39:46;6.70;;;1.73;;
3379;SDS011;1703;51.964;7.642;2023-04-01T00:42:13;5.23;;;1.50;;
3379;SDS011;1703;51.964;7.642;2023-04-01T00:44:40;2.60;;;1.47;;
3379;SDS011;1703;51.964;7.642;2023-04-01T00:47:08;3.83;;;1.87;;
3379;SDS011;1703;51.964;7.642;2023-04-01T00:49:35;6.90;;;1.20;;
3379;SDS011;1703;51.964;7.642;2023-04-01T00:52:07;3.80;;;1.70;;
3379;SDS011;1703;51.964;7.642;2023-04-01T00:54:36;3.67;;;1.90;;
3379;SDS011;1703;51.964;7.642;2023-04-01T00:57:05;2.97;;;1.90;;
3379;SDS011;1703;51.964;7.642;2023-04-01T00:59:37;5.90;;;2.10;;
3379;SDS011;1703;51.964;7.642;2023-04-01T01:02:10;3.07;;;1.97;;
3379;SDS011;1703;51.964;7.642;2023-04-01T01:04:38;3.00;;;1.70;;
3379;SDS011;1703;51.964;7.642;2023-04-01T01:07:10;1.73;;;1.60;;
3379;SDS011;1703;51.964;7.642;2023-04-01T01:09:44;2.60;;;1.60;;
3379;SDS011;1703;51.964;7.642;2023-04-01T01:12:18;2.60;;;1.53;;
3379;SDS011;1703;51.964;7.642;2023-04-01T01:14:52;4.53;;;2.00;;
3379;SDS011;1703;51.964;7.642;2023-04-01T01:17:26;4.40;;;1.80;;
3379;SDS011;1703;51.964;7.642;2023-04-01T01:20:14;5.63;;;1.63;;
3379;SDS011;1703;51.964;7.642;2023-04-01T01:23:08;1.93;;;1.47;;
3379;SDS011;1703;51.964;7.642;2023-04-01T01:25:56;6.67;;;2.60;;
3379;SDS011;1703;51.964;7.642;2023-04-01T01:28:36;1.90;;;1.37;;
3379;SDS011;1703;51.964;7.642;2023-04-01T01:31:16;4.30;;;1.87;;
3379;SDS011;1703;51.964;7.642;2023-04-01T01:33:58;2.50;;;1.33;;
3379;SDS011;1703;51.964;7.642;2023-04-01T01:36:39;3.63;;;2.53;;
3379;SDS011;1703;51.964;7.642;2023-04-01T01:39:10;2.10;;;1.83;;
3379;SDS011;1703;51.964;7.642;2023-04-01T01:41:39;1.93;;;1.40;;
3379;SDS011;1703;51.964;7.642;2023-04-01T01:44:09;4.00;;;1.80;;
3379;SDS011;1703;51.964;7.642;2023-04-01T01:46:39;3.90;;;1.67;;
3379;SDS011;1703;51.964;7.642;2023-04-01T01:49:08;1.93;;;1.70;;
3379;SDS011;1703;51.964;7.642;2023-04-01T01:51:37;4.07;;;1.70;;
3379;SDS011;1703;51.964;7.642;2023-04-01T01:54:11;3.73;;;2.20;;
3379;SDS011;1703;51.964;7.642;2023-04-01T01:56:39;3.00;;;1.50;;
3379;SDS011;1703;51.964;7.642;2023-04-01T01:59:09;4.00;;;2.00;;
3379;SDS011;1703;51.964;7.642;2023-04-01T02:01:39;1.83;;;1.73;;
3379;SDS011;1703;51.964;7.642;2023-04-01T02:04:12;2.10;;;1.90;;
3379;SDS011;1703;51.964;7.642;2023-04-01T02:06:43;1.60;;;1.40;;
3379;SDS011;1703;51.964;7.642;2023-04-01T02:09:14;4.80;;;1.60;;
3379;SDS011;1703;51.964;7.642;2023-04-01T02:11:42;2.53;;;1.60;;
3379;SDS011;1703;51.964;7.642;2023-04-01T02:14:13;4.23;;;2.00;;
3379;SDS011;1703;51.964;7.642;2023-04-01T02:16:43;2.50;;;2.20;;
3379;SDS011;1703;51.964;7.642;2023-04-01T02:19:15;3.87;;;2.23;;
3379;SDS011;1703;51.964;7.642;2023-04-01T02:21:49;2.60;;;1.30;;
3379;SDS011;1703;51.964;7.642;2023-04-01T02:24:19;2.30;;;2.10;;
3379;SDS011;1703;51.964;7.642;2023-04-01T02:26:49;5.70;;;2.13;;
3379;SDS011;1703;51.964;7.642;2023-04-01T02:29:17;4.17;;;2.23;;
3379;SDS011;1703;51.964;7.642;2023-04-01T02:31:47;2.67;;;2.47;;
3379;SDS011;1703;51.964;7.642;2023-04-01T02:34:15;3.27;;;1.60;;
3379;SDS011;1703;51.964;7.642;2023-04-01T02:36:42;3.80;;;1.83;;
3379;SDS011;1703;51.964;7.642;2023-04-01T02:39:10;5.23;;;2.30;;
3379;SDS011;1703;51.964;7.642;2023-04-01T02:41:40;5.23;;;2.80;;
3379;SDS011;1703;51.964;7.642;2023-04-01T02:44:08;4.20;;;2.10;;
3379;SDS011;1703;51.964;7.642;2023-04-01T02:46:36;2.77;;;2.50;;
3379;SDS011;1703;51.964;7.642;2023-04-01T02:49:03;2.30;;;2.10;;
3379;SDS011;1703;51.964;7.642;2023-04-01T02:51:31;2.03;;;1.93;;
3379;SDS011;1703;51.964;7.642;2023-04-01T02:53:57;3.97;;;2.30;;
3379;SDS011;1703;51.964;7.642;2023-04-01T02:56:26;2.47;;;1.90;;
3379;SDS011;1703;51.964;7.642;2023-04-01T02:58:53;5.40;;;1.60;;
3379;SDS011;1703;51.964;7.642;2023-04-01T03:01:20;6.80;;;2.40;;
3379;SDS011;1703;51.964;7.642;2023-04-01T03:03:47;5.23;;;2.10;;
3379;SDS011;1703;51.964;7.642;2023-04-01T03:06:15;2.23;;;1.57;;
3379;SDS011;1703;51.964;7.642;2023-04-01T03:08:43;3.40;;;1.90;;
3379;SDS011;1703;51.964;7.642;2023-04-01T03:11:10;2.40;;;1.53;;
3379;SDS011;1703;51.964;7.642;2023-04-01T03:13:39;8.10;;;1.70;;
3379;SDS011;1703;51.964;7.642;2023-04-01T03:16:06;2.00;;;1.50;;
3379;SDS011;1703;51.964;7.642;2023-04-01T03:18:34;1.80;;;1.57;;
3379;SDS011;1703;51.964;7.642;2023-04-01T03:21:11;2.50;;;2.30;;
3379;SDS011;1703;51.964;7.642;2023-04-01T03:23:39;3.10;;;1.47;;
3379;SDS011;1703;51.964;7.642;2023-04-01T03:26:06;1.20;;;1.10;;
3379;SDS011;1703;51.964;7.642;2023-04-01T03:28:33;5.30;;;1.80;;
3379;SDS011;1703;51.964;7.642;2023-04-01T03:31:01;2.97;;;1.97;;
3379;SDS011;1703;51.964;7.642;2023-04-01T03:33:35;1.80;;;1.70;;
3379;SDS011;1703;51.964;7.642;2023-04-01T03:36:03;1.80;;;1.60;;
3379;SDS011;1703;51.964;7.642;2023-04-01T03:38:31;1.63;;;1.53;;
3379;SDS011;1703;51.964;7.642;2023-04-01T03:40:58;2.20;;;1.93;;
3379;SDS011;1703;51.964;7.642;2023-04-01T03:43:25;3.13;;;1.73;;
3379;SDS011;1703;51.964;7.642;2023-04-01T03:45:52;1.83;;;1.73;;
3379;SDS011;1703;51.964;7.642;2023-04-01T03:48:21;2.73;;;1.67;;
3379;SDS011;1703;51.964;7.642;2023-04-01T03:50:48;2.43;;;1.73;;
3379;SDS011;1703;51.964;7.642;2023-04-01T03:53:15;1.87;;;1.77;;
3379;SDS011;1703;51.964;7.642;2023-04-01T03:55:44;5.03;;;1.70;;
3379;SDS011;1703;51.964;7.642;2023-04-01T03:58:11;4.97;;;1.80;;
3379;SDS011;1703;51.964;7.642;2023-04-01T04:00:40;2.83;;;2.23;;
3379;SDS011;1703;51.964;7.642;2023-04-01T04:03:08;2.30;;;2.20;;
3379;SDS011;1703;51.964;7.642;2023-04-01T04:05:37;2.43;;;2.30;;
3379;SDS011;1703;51.964;7.642;2023-04-01T04:08:04;2.53;;;2.33;;
3379;SDS011;1703;51.964;7.642;2023-04-01T04:10:31;2.80;;;2.60;;
3379;SDS011;1703;51.964;7.642;2023-04-01T04:13:00;3.43;;;2.60;;
3379;SDS011;1703;51.964;7.642;2023-04-01T04:15:29;8.53;;;2.70;;
3379;SDS011;1703;51.964;7.642;2023-04-01T04:17:56;2.27;;;2.07;;
3379;SDS011;1703;51.964;7.642;2023-04-01T04:20:22;2.47;;;2.27;;
3379;SDS011;1703;51.964;7.642;2023-04-01T04:22:51;3.63;;;2.60;;
3379;SDS011;1703;51.964;7.642;2023-04-01T04:25:17;3.10;;;2.53;;
3379;SDS011;1703;51.964;7.642;2023-04-01T04:27:44;3.07;;;2.77;;
3379;SDS011;1703;51.964;7.642;2023-04-01T04:30:13;3.87;;;2.67;;
3379;SDS011;1703;51.964;7.642;2023-04-01T04:32:40;2.63;;;2.43;;
3379;SDS011;1703;51.964;7.642;2023-04-01T04:35:09;8.40;;;3.27;;
3379;SDS011;1703;51.964;7.642;2023-04-01T04:37:36;3.13;;;2.50;;
3379;SDS011;1703;51.964;7.642;2023-04-01T04:40:05;2.87;;;2.60;;
3379;SDS011;1703;51.964;7.642;2023-04-01T04:42:33;4.90;;;2.90;;
3379;SDS011;1703;51.964;7.642;2023-04-01T04:45:06;3.77;;;2.67;;
3379;SDS011;1703;51.964;7.642;2023-04-01T04:47:34;5.00;;;3.40;;
3379;SDS011;1703;51.964;7.642;2023-04-01T04:50:01;3.33;;;2.80;;
3379;SDS011;1703;51.964;7.642;2023-04-01T04:52:28;4.07;;;2.90;;
3379;SDS011;1703;51.964;7.642;2023-04-01T04:54:55;6.13;;;2.80;;
3379;SDS011;1703;51.964;7.642;2023-04-01T04:57:23;4.70;;;2.30;;
3379;SDS011;1703;51.964;7.642;2023-04-01T04:59:53;4.33;;;2.27;;
3379;SDS011;1703;51.964;7.642;2023-04-01T05:02:47;2.77;;;2.57;;
3379;SDS011;1703;51.964;7.642;2023-04-01T05:05:14;4.73;;;2.40;;
3379;SDS011;1703;51.964;7.642;2023-04-01T05:07:40;2.93;;;2.20;;
3379;SDS011;1703;51.964;7.642;2023-04-01T05:10:08;4.23;;;2.23;;
3379;SDS011;1703;51.964;7.642;2023-04-01T05:12:36;2.67;;;2.17;;
3379;SDS011;1703;51.964;7.642;2023-04-01T05:15:06;2.13;;;2.00;;
3379;SDS011;1703;51.964;7.642;2023-04-01T05:17:34;2.30;;;2.10;;
3379;SDS011;1703;51.964;7.642;2023-04-01T05:20:02;2.50;;;2.30;;
3379;SDS011;1703;51.964;7.642;2023-04-01T05:22:30;2.50;;;2.30;;
3379;SDS011;1703;51.964;7.642;2023-04-01T05:24:57;2.30;;;2.10;;
3379;SDS011;1703;51.964;7.642;2023-04-01T05:27:24;2.17;;;1.70;;
3379;SDS011;1703;51.964;7.642;2023-04-01T05:29:52;2.40;;;2.20;;
3379;SDS011;1703;51.964;7.642;2023-04-01T05:32:48;5.20;;;2.23;;
3379;SDS011;1703;51.964;7.642;2023-04-01T05:35:16;3.57;;;2.23;;
3379;SDS011;1703;51.964;7.642;2023-04-01T05:37:43;2.50;;;2.30;;
3379;SDS011;1703;51.964;7.642;2023-04-01T05:40:10;2.50;;;2.37;;
3379;SDS011;1703;51.964;7.642;2023-04-01T05:42:37;3.00;;;2.70;;
3379;SDS011;1703;51.964;7.642;2023-04-01T05:45:06;4.23;;;3.77;;
3379;SDS011;1703;51.964;7.642;2023-04-01T05:47:54;3.77;;;3.47;;
3379;SDS011;1703;51.964;7.642;2023-04-01T05:50:21;3.70;;;3.37;;
3379;SDS011;1703;51.964;7.642;2023-04-01T05:52:48;3.73;;;3.40;;
3379;SDS011;1703;51.964;7.642;2023-04-01T05:55:15;3.13;;;2.83;;
3379;SDS011;1703;51.964;7.642;2023-04-01T05:57:44;4.43;;;3.20;;
3379;SDS011;1703;51.964;7.642;2023-04-01T06:00:15;3.60;;;3.30;;
3379;SDS011;1703;51.964;7.642;2023-04-01T06:02:42;4.33;;;3.30;;
3379;SDS011;1703;51.964;7.642;2023-04-01T06:05:12;4.53;;;4.13;;
3379;SDS011;1703;51.964;7.642;2023-04-01T06:07:43;4.00;;;3.60;;
3379;SDS011;1703;51.964;7.642;2023-04-01T06:10:12;4.23;;;3.83;;
3379;SDS011;1703;51.964;7.642;2023-04-01T06:12:43;4.40;;;4.10;;
3379;SDS011;1703;51.964;7.642;2023-04-01T06:15:22;7.93;;;3.90;;
3379;SDS011;1703;51.964;7.642;2023-04-01T06:21:07;5.13;;;4.73;;
3379;SDS011;1703;51.964;7.642;2023-04-01T06:23:58;5.10;;;4.60;;
3379;SDS011;1703;51.964;7.642;2023-04-01T06:26:39;5.83;;;5.23;;
3379;SDS011;1703;51.964;7.642;2023-04-01T06:29:27;9.20;;;5.63;;
3379;SDS011;1703;51.964;7.642;2023-04-01T06:32:28;5.63;;;5.20;;
3379;SDS011;1703;51.964;7.642;2023-04-01T06:35:14;5.90;;;5.40;;
3379;SDS011;1703;51.964;7.642;2023-04-01T06:38:00;6.23;;;5.63;;
3379;SDS011;1703;51.964;7.642;2023-04-01T06:43:53;6.63;;;6.03;;
3379;SDS011;1703;51.964;7.642;2023-04-01T06:46:44;15.20;;;9.93;;
3379;SDS011;1703;51.964;7.642;2023-04-01T06:49:41;6.90;;;5.90;;
3379;SDS011;1703;51.964;7.642;2023-04-01T06:52:37;7.13;;;6.43;;
3379;SDS011;1703;51.964;7.642;2023-04-01T06:55:32;15.33;;;6.43;;
3379;SDS011;1703;51.964;7.642;2023-04-01T06:58:11;6.27;;;5.70;;
3379;SDS011;1703;51.964;7.642;2023-04-01T07:00:45;7.50;;;6.80;;
3379;SDS011;1703;51.964;7.642;2023-04-01T07:03:16;5.73;;;5.30;;
3379;SDS011;1703;51.964;7.642;2023-04-01T07:05:49;6.30;;;5.50;;
3379;SDS011;1703;51.964;7.642;2023-04-01T07:08:17;6.60;;;5.80;;
3379;SDS011;1703;51.964;7.642;2023-04-01T07:10:49;6.20;;;5.60;;
3379;SDS011;1703;51.964;7.642;2023-04-01T07:13:39;10.90;;;5.60;;
3379;SDS011;1703;51.964;7.642;2023-04-01T07:16:15;5.83;;;5.37;;
3379;SDS011;1703;51.964;7.642;2023-04-01T07:18:47;4.60;;;4.30;;
3379;SDS011;1703;51.964;7.642;2023-04-01T07:21:22;5.87;;;5.27;;
3379;SDS011;1703;51.964;7.642;2023-04-01T07:23:56;5.77;;;5.27;;
3379;SDS011;1703;51.964;7.642;2023-04-01T07:26:56;4.77;;;4.33;;
3379;SDS011;1703;51.964;7.642;2023-04-01T07:29:27;4.43;;;4.03;;
3379;SDS011;1703;51.964;7.642;2023-04-01T07:34:58;9.23;;;4.60;;
3379;SDS011;1703;51.964;7.642;2023-04-01T07:37:39;4.47;;;4.07;;
3379;SDS011;1703;51.964;7.642;2023-04-01T07:40:20;4.47;;;4.13;;
3379;SDS011;1703;51.964;7.642;2023-04-01T07:42:58;5.00;;;3.93;;
3379;SDS011;1703;51.964;7.642;2023-04-01T07:45:45;4.07;;;3.70;;
3379;SDS011;1703;51.964;7.642;2023-04-01T07:48:19;4.50;;;4.20;;
3379;SDS011;1703;51.964;7.642;2023-04-01T07:51:00;7.13;;;4.03;;
3379;SDS011;1703;51.964;7.642;2023-04-01T07:53:33;5.53;;;3.97;;
3379;SDS011;1703;51.964;7.642;2023-04-01T07:56:05;4.37;;;4.07;;
3379;SDS011;1703;51.964;7.642;2023-04-01T07:58:41;4.13;;;3.83;;
3379;SDS011;1703;51.964;7.642;2023-04-01T08:01:39;5.30;;;3.77;;
3379;SDS011;1703;51.964;7.642;2023-04-01T08:04:23;3.20;;;3.00;;
3379;SDS011;1703;51.964;7.642;2023-04-01T08:06:58;4.00;;;3.70;;
3379;SDS011;1703;51.964;7.642;2023-04-01T08:09:40;3.80;;;3.50;;
3379;SDS011;1703;51.964;7.642;2023-04-01T08:12:35;4.87;;;4.30;;
3379;SDS011;1703;51.964;7.642;2023-04-01T08:15:34;6.80;;;3.40;;
3379;SDS011;1703;51.964;7.642;2023-04-01T08:18:15;7.50;;;3.07;;
3379;SDS011;1703;51.964;7.642;2023-04-01T08:20:50;3.27;;;2.97;;
3379;SDS011;1703;51.964;7.642;2023-04-01T08:23:21;4.10;;;3.80;;
3379;SDS011;1703;51.964;7.642;2023-04-01T08:25:53;3.37;;;3.17;;
3379;SDS011;1703;51.964;7.642;2023-04-01T08:28:27;4.03;;;3.73;;
3379;SDS011;1703;51.964;7.642;2023-04-01T08:31:03;4.00;;;3.70;;
3379;SDS011;1703;51.964;7.642;2023-04-01T08:33:33;3.70;;;3.40;;
3379;SDS011;1703;51.964;7.642;2023-04-01T08:36:05;4.13;;;3.80;;
3379;SDS011;1703;51.964;7.642;2023-04-01T08:38:38;4.00;;;3.70;;
3379;SDS011;1703;51.964;7.642;2023-04-01T08:41:16;3.80;;;3.50;;
3379;SDS011;1703;51.964;7.642;2023-04-01T08:44:17;4.23;;;3.93;;
3379;SDS011;1703;51.964;7.642;2023-04-01T08:47:13;4.70;;;4.20;;
3379;SDS011;1703;51.964;7.642;2023-04-01T08:49:55;6.90;;;5.60;;
3379;SDS011;1703;51.964;7.642;2023-04-01T08:52:45;5.43;;;4.93;;
3379;SDS011;1703;51.964;7.642;2023-04-01T08:58:23;5.50;;;4.50;;
3379;SDS011;1703;51.964;7.642;2023-04-01T09:01:22;4.90;;;4.50;;
3379;SDS011;1703;51.964;7.642;2023-04-01T09:07:06;3.77;;;3.50;;
3379;SDS011;1703;51.964;7.642;2023-04-01T09:10:02;3.30;;;3.10;;
3379;SDS011;1703;51.964;7.642;2023-04-01T09:12:50;4.50;;;4.20;;
3379;SDS011;1703;51.964;7.642;2023-04-01T09:15:34;4.00;;;3.63;;
3379;SDS011;1703;51.964;7.642;2023-04-01T09:18:35;5.33;;;4.93;;
3379;SDS011;1703;51.964;7.642;2023-04-01T09:21:24;4.23;;;3.80;;
3379;SDS011;1703;51.964;7.642;2023-04-01T09:27:05;5.70;;;4.77;;
3379;SDS011;1703;51.964;7.642;2023-04-01T09:33:06;5.63;;;5.10;;
3379;SDS011;1703;51.964;7.642;2023-04-01T09:35:55;5.43;;;5.03;;
3379;SDS011;1703;51.964;7.642;2023-04-01T09:38:36;5.57;;;5.13;;
3379;SDS011;1703;51.964;7.642;2023-04-01T09:41:16;6.03;;;5.53;;
3379;SDS011;1703;51.964;7.642;2023-04-01T09:44:14;5.70;;;5.20;;
3379;SDS011;1703;51.964;7.642;2023-04-01T09:47:13;6.23;;;5.63;;
3379;SDS011;1703;51.964;7.642;2023-04-01T09:49:57;4.40;;;4.10;;
3379;SDS011;1703;51.964;7.642;2023-04-01T09:52:38;4.47;;;4.17;;
3379;SDS011;1703;51.964;7.642;2023-04-01T09:55:48;4.60;;;4.30;;
3379;SDS011;1703;51.964;7.642;2023-04-01T09:59:01;3.93;;;3.30;;
3379;SDS011;1703;51.964;7.642;2023-04-01T10:02:07;3.97;;;3.67;;
3379;SDS011;1703;51.964;7.642;2023-04-01T10:05:24;4.40;;;3.50;;
3379;SDS011;1703;51.964;7.642;2023-04-01T10:08:19;7.30;;;4.60;;
3379;SDS011;1703;51.964;7.642;2023-04-01T10:14:20;5.53;;;3.73;;
3379;SDS011;1703;51.964;7.642;2023-04-01T10:17:14;3.67;;;3.27;;
3379;SDS011;1703;51.964;7.642;2023-04-01T10:20:18;3.63;;;3.33;;
3379;SDS011;1703;51.964;7.642;2023-04-01T10:23:18;4.60;;;4.30;;
3379;SDS011;1703;51.964;7.642;2023-04-01T10:32:20;4.63;;;4.20;;
3379;SDS011;1703;51.964;7.642;2023-04-01T10:37:54;3.80;;;3.60;;
3379;SDS011;1703;51.964;7.642;2023-04-01T10:40:53;8.73;;;4.50;;
3379;SDS011;1703;51.964;7.642;2023-04-01T10:44:09;3.20;;;3.00;;
3379;SDS011;1703;51.964;7.642;2023-04-01T10:47:33;4.03;;;3.70;;
3379;SDS011;1703;51.964;7.642;2023-04-01T10:50:25;4.27;;;3.93;;
3379;SDS011;1703;51.964;7.642;2023-04-01T10:56:40;4.10;;;3.80;;
3379;SDS011;1703;51.964;7.642;2023-04-01T10:59:55;6.07;;;3.67;;
3379;SDS011;1703;51.964;7.642;2023-04-01T11:03:46;3.07;;;2.97;;
3379;SDS011;1703;51.964;7.642;2023-04-01T11:10:09;3.03;;;2.83;;
3379;SDS011;1703;51.964;7.642;2023-04-01T11:13:16;3.07;;;2.77;;
3379;SDS011;1703;51.964;7.642;2023-04-01T11:16:22;3.03;;;2.93;;
3379;SDS011;1703;51.964;7.642;2023-04-01T11:19:25;2.67;;;2.47;;
3379;SDS011;1703;51.964;7.642;2023-04-01T11:25:20;2.27;;;2.17;;
3379;SDS011;1703;51.964;7.642;2023-04-01T11:28:27;2.40;;;2.30;;
3379;SDS011;1703;51.964;7.642;2023-04-01T11:31:22;3.20;;;3.00;;
3379;SDS011;1703;51.964;7.642;2023-04-01T11:33:57;3.00;;;2.80;;
3379;SDS011;1703;51.964;7.642;2023-04-01T11:36:37;5.80;;;4.07;;
3379;SDS011;1703;51.964;7.642;2023-04-01T11:39:20;3.40;;;3.10;;
3379;SDS011;1703;51.964;7.642;2023-04-01T11:42:06;3.10;;;2.90;;
3379;SDS011;1703;51.964;7.642;2023-04-01T11:45:03;3.73;;;3.43;;
3379;SDS011;1703;51.964;7.642;2023-04-01T11:47:52;2.40;;;2.30;;
3379;SDS011;1703;51.964;7.642;2023-04-01T11:50:35;2.27;;;2.17;;
3379;SDS011;1703;51.964;7.642;2023-04-01T11:53:21;1.90;;;1.80;;
3379;SDS011;1703;51.964;7.642;2023-04-01T11:56:00;2.40;;;2.20;;
3379;SDS011;1703;51.964;7.642;2023-04-01T12:01:49;2.40;;;2.20;;
3379;SDS011;1703;51.964;7.642;2023-04-01T12:04:27;1.97;;;1.87;;
3379;SDS011;1703;51.964;7.642;2023-04-01T12:07:11;2.67;;;2.47;;
3379;SDS011;1703;51.964;7.642;2023-04-01T12:09:49;2.40;;;2.20;;
3379;SDS011;1703;51.964;7.642;2023-04-01T12:12:24;2.97;;;2.83;;
3379;SDS011;1703;51.964;7.642;2023-04-01T12:14:59;2.53;;;2.00;;
3379;SDS011;1703;51.964;7.642;2023-04-01T12:17:36;3.33;;;3.00;;
3379;SDS011;1703;51.964;7.642;2023-04-01T12:20:14;2.97;;;2.70;;
3379;SDS011;1703;51.964;7.642;2023-04-01T12:22:55;2.87;;;2.67;;
3379;SDS011;1703;51.964;7.642;2023-04-01T12:25:28;3.27;;;3.07;;
3379;SDS011;1703;51.964;7.642;2023-04-01T12:28:18;3.70;;;3.37;;
3379;SDS011;1703;51.964;7.642;2023-04-01T12:30:57;4.60;;;3.80;;
3379;SDS011;1703;51.964;7.642;2023-04-01T12:33:37;2.30;;;2.10;;
3379;SDS011;1703;51.964;7.642;2023-04-01T12:36:13;3.00;;;2.80;;
3379;SDS011;1703;51.964;7.642;2023-04-01T12:38:51;2.73;;;2.53;;
3379;SDS011;1703;51.964;7.642;2023-04-01T12:41:35;2.90;;;2.70;;
3379;SDS011;1703;51.964;7.642;2023-04-01T12:47:14;1.43;;;1.33;;
3379;SDS011;1703;51.964;7.642;2023-04-01T12:50:00;1.10;;;1.00;;
3379;SDS011;1703;51.964;7.642;2023-04-01T12:52:50;1.27;;;1.20;;
3379;SDS011;1703;51.964;7.642;2023-04-01T12:55:33;1.40;;;1.30;;
3379;SDS011;1703;51.964;7.642;2023-04-01T13:04:28;2.23;;;2.03;;
3379;SDS011;1703;51.964;7.642;2023-04-01T13:10:30;2.13;;;2.03;;
3379;SDS011;1703;51.964;7.642;2023-04-01T13:13:09;2.13;;;1.93;;
3379;SDS011;1703;51.964;7.642;2023-04-01T13:15:48;2.00;;;1.90;;
3379;SDS011;1703;51.964;7.642;2023-04-01T13:18:25;3.67;;;2.20;;
3379;SDS011;1703;51.964;7.642;2023-04-01T13:21:00;2.23;;;2.13;;
3379;SDS011;1703;51.964;7.642;2023-04-01T13:23:37;2.27;;;1.67;;
3379;SDS011;1703;51.964;7.642;2023-04-01T13:26:18;2.33;;;2.10;;
3379;SDS011;1703;51.964;7.642;2023-04-01T13:28:53;2.23;;;2.03;;
3379;SDS011;1703;51.964;7.642;2023-04-01T13:31:29;2.20;;;2.10;;
3379;SDS011;1703;51.964;7.642;2023-04-01T13:34:08;2.13;;;2.03;;
3379;SDS011;1703;51.964;7.642;2023-04-01T13:36:56;4.03;;;3.63;;
3379;SDS011;1703;51.964;7.642;2023-04-01T13:39:49;3.40;;;3.10;;
3379;SDS011;1703;51.964;7.642;2023-04-01T13:42:31;3.93;;;3.53;;
3379;SDS011;1703;51.964;7.642;2023-04-01T13:45:08;3.40;;;3.10;;
3379;SDS011;1703;51.964;7.642;2023-04-01T13:47:45;7.07;;;4.73;;
3379;SDS011;1703;51.964;7.642;2023-04-01T13:56:37;5.20;;;4.70;;
3379;SDS011;1703;51.964;7.642;2023-04-01T14:02:13;7.20;;;5.67;;
3379;SDS011;1703;51.964;7.642;2023-04-01T14:05:09;7.50;;;6.07;;
3379;SDS011;1703;51.964;7.642;2023-04-01T14:07:55;7.70;;;6.10;;
3379;SDS011;1703;51.964;7.642;2023-04-01T14:10:31;7.33;;;6.00;;
3379;SDS011;1703;51.964;7.642;2023-04-01T14:13:06;7.30;;;5.20;;
3379;SDS011;1703;51.964;7.642;2023-04-01T14:15:50;5.27;;;4.43;;
3379;SDS011;1703;51.964;7.642;2023-04-01T14:18:30;5.80;;;5.20;;
3379;SDS011;1703;51.964;7.642;2023-04-01T14:21:12;8.23;;;6.27;;
3379;SDS011;1703;51.964;7.642;2023-04-01T14:24:01;6.47;;;5.03;;
3379;SDS011;1703;51.964;7.642;2023-04-01T14:26:57;8.23;;;6.40;;
3379;SDS011;1703;51.964;7.642;2023-04-01T14:29:48;6.90;;;5.10;;
3379;SDS011;1703;51.964;7.642;2023-04-01T14:32:27;7.03;;;5.27;;
3379;SDS011;1703;51.964;7.642;2023-04-01T14:35:12;5.57;;;4.63;;
3379;SDS011;1703;51.964;7.642;2023-04-01T14:38:20;6.07;;;5.43;;
3379;SDS011;1703;51.964;7.642;2023-04-01T14:41:15;5.53;;;4.90;;
3379;SDS011;1703;51.964;7.642;2023-04-01T14:46:55;7.70;;;7.00;;
3379;SDS011;1703;51.964;7.642;2023-04-01T14:49:39;6.50;;;5.93;;
3379;SDS011;1703;51.964;7.642;2023-04-01T14:52:10;6.90;;;5.90;;
3379;SDS011;1703;51.964;7.642;2023-04-01T14:54:41;5.47;;;4.97;;
3379;SDS011;1703;51.964;7.642;2023-04-01T14:57:11;4.97;;;4.47;;
3379;SDS011;1703;51.964;7.642;2023-04-01T14:59:39;4.70;;;4.30;;
3379;SDS011;1703;51.964;7.642;2023-04-01T15:02:09;5.80;;;4.80;;
3379;SDS011;1703;51.964;7.642;2023-04-01T15:04:52;5.90;;;4.87;;
3379;SDS011;1703;51.964;7.642;2023-04-01T15:10:39;3.10;;;2.80;;
3379;SDS011;1703;51.964;7.642;2023-04-01T15:16:49;3.63;;;3.30;;
3379;SDS011;1703;51.964;7.642;2023-04-01T15:19:26;4.20;;;3.53;;
3379;SDS011;1703;51.964;7.642;2023-04-01T15:22:18;3.50;;;3.20;;
3379;SDS011;1703;51.964;7.642;2023-04-01T15:25:00;3.80;;;3.50;;
3379;SDS011;1703;51.964;7.642;2023-04-01T15:27:42;4.37;;;3.17;;
3379;SDS011;1703;51.964;7.642;2023-04-01T15:33:10;4.17;;;3.77;;
3379;SDS011;1703;51.964;7.642;2023-04-01T15:35:46;6.73;;;5.20;;
3379;SDS011;1703;51.964;7.642;2023-04-01T15:38:23;3.57;;;3.27;;
3379;SDS011;1703;51.964;7.642;2023-04-01T15:41:02;3.70;;;3.40;;
3379;SDS011;1703;51.964;7.642;2023-04-01T15:43:40;3.73;;;3.40;;
3379;SDS011;1703;51.964;7.642;2023-04-01T15:46:12;3.90;;;3.60;;
3379;SDS011;1703;51.964;7.642;2023-04-01T15:48:51;3.53;;;3.23;;
3379;SDS011;1703;51.964;7.642;2023-04-01T15:51:29;4.27;;;3.90;;
3379;SDS011;1703;51.964;7.642;2023-04-01T15:54:27;5.77;;;5.17;;
3379;SDS011;1703;51.964;7.642;2023-04-01T15:57:20;6.47;;;5.70;;
3379;SDS011;1703;51.964;7.642;2023-04-01T16:00:06;6.40;;;5.80;;
3379;SDS011;1703;51.964;7.642;2023-04-01T16:02:43;5.10;;;4.60;;
3379;SDS011;1703;51.964;7.642;2023-04-01T16:05:22;4.07;;;3.67;;
3379;SDS011;1703;51.964;7.642;2023-04-01T16:08:14;3.93;;;3.63;;
3379;SDS011;1703;51.964;7.642;2023-04-01T16:10:56;2.47;;;2.30;;
3379;SDS011;1703;51.964;7.642;2023-04-01T16:13:38;3.27;;;2.97;;
3379;SDS011;1703;51.964;7.642;2023-04-01T16:16:14;2.90;;;2.70;;
3379;SDS011;1703;51.964;7.642;2023-04-01T16:18:57;2.30;;;2.20;;
3379;SDS011;1703;51.964;7.642;2023-04-01T16:21:45;3.03;;;2.77;;
3379;SDS011;1703;51.964;7.642;2023-04-01T16:24:19;3.00;;;2.80;;
3379;SDS011;1703;51.964;7.642;2023-04-01T16:26:54;4.27;;;3.50;;
3379;SDS011;1703;51.964;7.642;2023-04-01T16:29:27;4.00;;;3.60;;
3379;SDS011;1703;51.964;7.642;2023-04-01T16:32:05;3.87;;;2.47;;
3379;SDS011;1703;51.964;7.642;2023-04-01T16:34:43;6.33;;;2.83;;
3379;SDS011;1703;51.964;7.642;2023-04-01T16:37:15;2.67;;;2.47;;
3379;SDS011;1703;51.964;7.642;2023-04-01T16:39:47;3.43;;;2.13;;
3379;SDS011;1703;51.964;7.642;2023-04-01T16:42:24;1.90;;;1.80;;
3379;SDS011;1703;51.964;7.642;2023-04-01T16:44:59;1.80;;;1.70;;
3379;SDS011;1703;51.964;7.642;2023-04-01T16:47:45;1.87;;;1.77;;
3379;SDS011;1703;51.964;7.642;2023-04-01T16:50:17;2.40;;;2.20;;
3379;SDS011;1703;51.964;7.642;2023-04-01T16:52:53;1.53;;;1.43;;
3379;SDS011;1703;51.964;7.642;2023-04-01T16:55:34;1.93;;;1.83;;
3379;SDS011;1703;51.964;7.642;2023-04-01T16:58:08;1.67;;;1.57;;
3379;SDS011;1703;51.964;7.642;2023-04-01T17:00:40;1.67;;;1.53;;
3379;SDS011;1703;51.964;7.642;2023-04-01T17:03:15;0.80;;;0.80;;
3379;SDS011;1703;51.964;7.642;2023-04-01T17:05:52;5.00;;;1.10;;
3379;SDS011;1703;51.964;7.642;2023-04-01T17:08:32;2.37;;;1.50;;
3379;SDS011;1703;51.964;7.642;2023-04-01T17:11:12;1.33;;;1.17;;
3379;SDS011;1703;51.964;7.642;2023-04-01T17:13:50;0.87;;;0.87;;
3379;SDS011;1703;51.964;7.642;2023-04-01T17:16:28;1.10;;;1.00;;
3379;SDS011;1703;51.964;7.642;2023-04-01T17:19:21;0.93;;;0.93;;
3379;SDS011;1703;51.964;7.642;2023-04-01T17:22:04;0.90;;;0.80;;
3379;SDS011;1703;51.964;7.642;2023-04-01T17:24:45;0.80;;;0.67;;
3379;SDS011;1703;51.964;7.642;2023-04-01T17:27:26;1.27;;;1.17;;
3379;SDS011;1703;51.964;7.642;2023-04-01T17:30:09;1.03;;;0.80;;
3379;SDS011;1703;51.964;7.642;2023-04-01T17:32:46;0.60;;;0.60;;
3379;SDS011;1703;51.964;7.642;2023-04-01T17:35:22;0.73;;;0.73;;
3379;SDS011;1703;51.964;7.642;2023-04-01T17:38:00;1.10;;;1.00;;
3379;SDS011;1703;51.964;7.642;2023-04-01T17:40:37;2.03;;;0.90;;
3379;SDS011;1703;51.964;7.642;2023-04-01T17:43:20;1.23;;;1.13;;